sensor_id;sensor_type;location;lat;lon;timestamp;pressure;altitude;pressure_sealevel;temperature;humidity
56630;BME280;42502;40.732;-74.254;2023-03-17T00:01:33;100400.59;;;18.60;37.81
56630;BME280;42502;40.732;-74.254;2023-03-17T00:03:39;100400.09;;;18.58;37.92
56630;BME280;42502;40.732;-74.254;2023-03-17T00:05:43;100397.31;;;18.58;38.03
56630;BME280;42502;40.732;-74.254;2023-03-17T00:07:49;100398.94;;;18.59;38.02
56630;BME280;42502;40.732;-74.254;2023-03-17T00:09:51;100403.38;;;18.60;37.84
56630;BME280;42502;40.732;-74.254;2023-03-17T00:11:52;100404.19;;;18.61;38.06
56630;BME280;42502;40.732;-74.254;2023-03-17T00:13:55;100399.78;;;18.60;37.99
56630;BME280;42502;40.732;-74.254;2023-03-17T00:16:02;100406.53;;;18.59;37.89
56630;BME280;42502;40.732;-74.254;2023-03-17T00:18:03;100403.38;;;18.60;37.86
56630;BME280;42502;40.732;-74.254;2023-03-17T00:20:05;100395.69;;;18.57;37.96
56630;BME280;42502;40.732;-74.254;2023-03-17T00:22:28;100387.66;;;18.56;37.94
56630;BME280;42502;40.732;-74.254;2023-03-17T00:24:30;100401.75;;;18.59;37.98
56630;BME280;42502;40.732;-74.254;2023-03-17T00:26:30;100398.13;;;18.59;37.81
56630;BME280;42502;40.732;-74.254;2023-03-17T00:28:32;100398.47;;;18.57;38.07
56630;BME280;42502;40.732;-74.254;2023-03-17T00:30:33;100398.94;;;18.59;37.81
56630;BME280;42502;40.732;-74.254;2023-03-17T00:32:34;100401.28;;;18.57;38.05
56630;BME280;42502;40.732;-74.254;2023-03-17T00:34:35;100395.19;;;18.55;37.99
56630;BME280;42502;40.732;-74.254;2023-03-17T00:36:36;100389.03;;;18.50;37.87
56630;BME280;42502;40.732;-74.254;2023-03-17T00:38:38;100389.16;;;18.53;38.03
56630;BME280;42502;40.732;-74.254;2023-03-17T00:40:39;100397.31;;;18.58;37.84
56630;BME280;42502;40.732;-74.254;2023-03-17T00:42:42;100405.22;;;18.56;37.85
56630;BME280;42502;40.732;-74.254;2023-03-17T00:44:46;100409.19;;;18.55;38.07
56630;BME280;42502;40.732;-74.254;2023-03-17T00:46:47;100410.38;;;18.54;38.15
56630;BME280;42502;40.732;-74.254;2023-03-17T00:48:48;100403.59;;;18.55;38.24
56630;BME280;42502;40.732;-74.254;2023-03-17T00:50:52;100416.44;;;18.56;38.01
56630;BME280;42502;40.732;-74.254;2023-03-17T00:52:55;100414.09;;;18.58;38.20
56630;BME280;42502;40.732;-74.254;2023-03-17T00:54:57;100412.47;;;18.57;38.04
56630;BME280;42502;40.732;-74.254;2023-03-17T00:57:01;100420.03;;;18.57;38.36
56630;BME280;42502;40.732;-74.254;2023-03-17T00:59:08;100410.47;;;18.58;38.22
56630;BME280;42502;40.732;-74.254;2023-03-17T01:01:15;100413.63;;;18.56;38.20
56630;BME280;42502;40.732;-74.254;2023-03-17T01:03:16;100411.97;;;18.55;38.24
56630;BME280;42502;40.732;-74.254;2023-03-17T01:05:17;100406.38;;;18.55;38.46
56630;BME280;42502;40.732;-74.254;2023-03-17T01:07:18;100410.84;;;18.56;38.49
56630;BME280;42502;40.732;-74.254;2023-03-17T01:09:25;100407.56;;;18.54;38.58
56630;BME280;42502;40.732;-74.254;2023-03-17T01:11:26;100401.63;;;18.56;38.41
56630;BME280;42502;40.732;-74.254;2023-03-17T01:13:27;100404.88;;;18.58;38.30
56630;BME280;42502;40.732;-74.254;2023-03-17T01:15:30;100398.47;;;18.57;38.42
56630;BME280;42502;40.732;-74.254;2023-03-17T01:17:31;100393.25;;;18.56;38.50
56630;BME280;42502;40.732;-74.254;2023-03-17T01:19:32;100397.66;;;18.57;38.53
56630;BME280;42502;40.732;-74.254;2023-03-17T01:21:33;100397.66;;;18.57;38.69
56630;BME280;42502;40.732;-74.254;2023-03-17T01:23:34;100396.03;;;18.56;38.66
56630;BME280;42502;40.732;-74.254;2023-03-17T01:25:39;100391.25;;;18.56;38.61
56630;BME280;42502;40.732;-74.254;2023-03-17T01:27:43;100393.25;;;18.56;38.60
56630;BME280;42502;40.732;-74.254;2023-03-17T01:29:44;100382.41;;;18.54;38.80
56630;BME280;42502;40.732;-74.254;2023-03-17T01:31:45;100394.03;;;18.56;38.60
56630;BME280;42502;40.732;-74.254;2023-03-17T01:33:46;100394.03;;;18.56;38.72
56630;BME280;42502;40.732;-74.254;2023-03-17T01:35:53;100388.78;;;18.55;38.54
56630;BME280;42502;40.732;-74.254;2023-03-17T01:37:54;100394.03;;;18.56;38.39
56630;BME280;42502;40.732;-74.254;2023-03-17T01:39:56;100386.81;;;18.55;38.55
56630;BME280;42502;40.732;-74.254;2023-03-17T01:42:00;100386.34;;;18.53;38.63
56630;BME280;42502;40.732;-74.254;2023-03-17T01:44:02;100377.59;;;18.55;38.31
56630;BME280;42502;40.732;-74.254;2023-03-17T01:48:27;100380.75;;;18.53;38.74
56630;BME280;42502;40.732;-74.254;2023-03-17T01:50:29;100372.34;;;18.53;38.59
56630;BME280;42502;40.732;-74.254;2023-03-17T01:52:31;100364.31;;;18.52;38.52
56630;BME280;42502;40.732;-74.254;2023-03-17T01:54:42;100361.16;;;18.53;38.63
56630;BME280;42502;40.732;-74.254;2023-03-17T01:56:47;100370.72;;;18.52;38.39
56630;BME280;42502;40.732;-74.254;2023-03-17T01:58:53;100372.34;;;18.53;38.54
56630;BME280;42502;40.732;-74.254;2023-03-17T02:00:57;100369.09;;;18.51;38.52
56630;BME280;42502;40.732;-74.254;2023-03-17T02:02:58;100365.97;;;18.53;38.32
56630;BME280;42502;40.732;-74.254;2023-03-17T02:05:00;100373.50;;;18.52;38.42
56630;BME280;42502;40.732;-74.254;2023-03-17T02:07:02;100369.09;;;18.51;38.45
56630;BME280;42502;40.732;-74.254;2023-03-17T02:09:04;100361.41;;;18.48;38.34
56630;BME280;42502;40.732;-74.254;2023-03-17T02:11:06;100369.44;;;18.50;38.65
56630;BME280;42502;40.732;-74.254;2023-03-17T02:13:10;100375.03;;;18.50;38.46
56630;BME280;42502;40.732;-74.254;2023-03-17T02:15:12;100366.16;;;18.47;38.40
56630;BME280;42502;40.732;-74.254;2023-03-17T02:17:13;100364.22;;;18.48;38.48
56630;BME280;42502;40.732;-74.254;2023-03-17T02:19:14;100368.63;;;18.49;38.38
56630;BME280;42502;40.732;-74.254;2023-03-17T02:21:46;100367.00;;;18.48;38.51
56630;BME280;42502;40.732;-74.254;2023-03-17T02:23:49;100371.41;;;18.49;38.25
56630;BME280;42502;40.732;-74.254;2023-03-17T02:25:51;100367.00;;;18.48;38.42
56630;BME280;42502;40.732;-74.254;2023-03-17T02:28:05;100366.16;;;18.47;38.18
56630;BME280;42502;40.732;-74.254;2023-03-17T02:30:12;100360.56;;;18.47;38.32
56630;BME280;42502;40.732;-74.254;2023-03-17T02:32:14;100359.41;;;18.49;38.33
56630;BME280;42502;40.732;-74.254;2023-03-17T02:34:17;100358.97;;;18.46;38.35
56630;BME280;42502;40.732;-74.254;2023-03-17T02:36:18;100364.56;;;18.46;38.38
56630;BME280;42502;40.732;-74.254;2023-03-17T02:38:19;100372.94;;;18.46;38.42
56630;BME280;42502;40.732;-74.254;2023-03-17T02:40:21;100377.69;;;18.46;38.45
56630;BME280;42502;40.732;-74.254;2023-03-17T02:42:22;100375.75;;;18.46;38.47
56630;BME280;42502;40.732;-74.254;2023-03-17T02:44:23;100369.66;;;18.44;38.49
56630;BME280;42502;40.732;-74.254;2023-03-17T02:46:27;100373.63;;;18.43;38.37
56630;BME280;42502;40.732;-74.254;2023-03-17T02:48:28;100368.03;;;18.43;38.41
56630;BME280;42502;40.732;-74.254;2023-03-17T02:50:32;100358.00;;;18.42;38.21
56630;BME280;42502;40.732;-74.254;2023-03-17T02:52:33;100372.44;;;18.44;38.28
56630;BME280;42502;40.732;-74.254;2023-03-17T02:54:34;100375.94;;;18.41;38.40
56630;BME280;42502;40.732;-74.254;2023-03-17T02:56:35;100385.97;;;18.42;38.20
56630;BME280;42502;40.732;-74.254;2023-03-17T02:58:36;100377.25;;;18.44;38.39
56630;BME280;42502;40.732;-74.254;2023-03-17T03:00:39;100384.00;;;18.43;38.25
56630;BME280;42502;40.732;-74.254;2023-03-17T03:02:41;100389.94;;;18.41;38.07
56630;BME280;42502;40.732;-74.254;2023-03-17T03:04:45;100395.19;;;18.43;38.23
56630;BME280;42502;40.732;-74.254;2023-03-17T03:06:49;100383.19;;;18.42;38.01
56630;BME280;42502;40.732;-74.254;2023-03-17T03:08:51;100389.13;;;18.41;38.01
56630;BME280;42502;40.732;-74.254;2023-03-17T03:10:57;100383.53;;;18.41;38.24
56630;BME280;42502;40.732;-74.254;2023-03-17T03:12:59;100375.47;;;18.39;38.09
56630;BME280;42502;40.732;-74.254;2023-03-17T03:15:01;100374.19;;;18.37;38.30
56630;BME280;42502;40.732;-74.254;2023-03-17T03:17:02;100358.34;;;18.28;38.17
56630;BME280;42502;40.732;-74.254;2023-03-17T03:19:04;100370.69;;;18.40;38.09
56630;BME280;42502;40.732;-74.254;2023-03-17T03:21:08;100381.09;;;18.39;38.18
56630;BME280;42502;40.732;-74.254;2023-03-17T03:23:13;100390.28;;;18.40;38.17
56630;BME280;42502;40.732;-74.254;2023-03-17T03:25:14;100385.88;;;18.39;38.04
56630;BME280;42502;40.732;-74.254;2023-03-17T03:27:15;100381.44;;;18.38;38.01
56630;BME280;42502;40.732;-74.254;2023-03-17T03:29:16;100375.03;;;18.37;37.92
56630;BME280;42502;40.732;-74.254;2023-03-17T03:31:17;100368.25;;;18.38;38.14
56630;BME280;42502;40.732;-74.254;2023-03-17T03:33:20;100372.09;;;18.34;38.06
56630;BME280;42502;40.732;-74.254;2023-03-17T03:35:21;100372.56;;;18.36;38.18
56630;BME280;42502;40.732;-74.254;2023-03-17T03:37:22;100368.94;;;18.35;38.05
56630;BME280;42502;40.732;-74.254;2023-03-17T03:39:23;100369.78;;;18.36;37.89
56630;BME280;42502;40.732;-74.254;2023-03-17T03:41:24;100369.78;;;18.36;38.02
56630;BME280;42502;40.732;-74.254;2023-03-17T03:43:25;100359.28;;;18.33;37.95
56630;BME280;42502;40.732;-74.254;2023-03-17T03:45:26;100369.44;;;18.37;38.09
56630;BME280;42502;40.732;-74.254;2023-03-17T03:47:27;100363.34;;;18.35;37.88
56630;BME280;42502;40.732;-74.254;2023-03-17T03:49:28;100354.84;;;18.32;38.08
56630;BME280;42502;40.732;-74.254;2023-03-17T03:51:29;100341.81;;;18.36;37.79
56630;BME280;42502;40.732;-74.254;2023-03-17T03:53:33;100337.72;;;18.33;37.89
56630;BME280;42502;40.732;-74.254;2023-03-17T03:55:34;100343.31;;;18.33;38.14
56630;BME280;42502;40.732;-74.254;2023-03-17T03:57:35;100344.13;;;18.34;37.90
56630;BME280;42502;40.732;-74.254;2023-03-17T03:59:36;100338.53;;;18.34;37.98
56630;BME280;42502;40.732;-74.254;2023-03-17T04:01:37;100335.72;;;18.34;38.00
56630;BME280;42502;40.732;-74.254;2023-03-17T04:03:42;100331.66;;;18.31;38.01
56630;BME280;42502;40.732;-74.254;2023-03-17T04:05:43;100339.72;;;18.33;37.98
56630;BME280;42502;40.732;-74.254;2023-03-17T04:07:44;100335.28;;;18.32;37.68
56630;BME280;42502;40.732;-74.254;2023-03-17T04:09:46;100338.06;;;18.32;37.84
56630;BME280;42502;40.732;-74.254;2023-03-17T04:11:48;100332.03;;;18.29;37.89
56630;BME280;42502;40.732;-74.254;2023-03-17T04:13:49;100336.09;;;18.32;37.79
56630;BME280;42502;40.732;-74.254;2023-03-17T04:15:53;100326.44;;;18.29;37.93
56630;BME280;42502;40.732;-74.254;2023-03-17T04:17:54;100328.03;;;18.31;37.93
56630;BME280;42502;40.732;-74.254;2023-03-17T04:19:57;100326.44;;;18.29;37.88
56630;BME280;42502;40.732;-74.254;2023-03-17T04:21:58;100320.34;;;18.27;37.92
56630;BME280;42502;40.732;-74.254;2023-03-17T04:24:03;100327.94;;;18.27;37.85
56630;BME280;42502;40.732;-74.254;2023-03-17T04:26:08;100332.34;;;18.28;37.88
56630;BME280;42502;40.732;-74.254;2023-03-17T04:28:09;100324.78;;;18.28;37.75
56630;BME280;42502;40.732;-74.254;2023-03-17T04:30:12;100331.53;;;18.27;37.86
56630;BME280;42502;40.732;-74.254;2023-03-17T04:32:14;100331.06;;;18.25;37.85
56630;BME280;42502;40.732;-74.254;2023-03-17T04:34:16;100329.53;;;18.28;37.97
56630;BME280;42502;40.732;-74.254;2023-03-17T04:36:22;100323.50;;;18.26;37.69
56630;BME280;42502;40.732;-74.254;2023-03-17T04:38:23;100329.88;;;18.26;37.65
56630;BME280;42502;40.732;-74.254;2023-03-17T04:40:24;100310.19;;;18.23;37.94
56630;BME280;42502;40.732;-74.254;2023-03-17T04:42:25;100325.47;;;18.25;37.55
56630;BME280;42502;40.732;-74.254;2023-03-17T04:44:26;100326.63;;;18.24;37.67
56630;BME280;42502;40.732;-74.254;2023-03-17T04:46:27;100313.34;;;18.21;37.76
56630;BME280;42502;40.732;-74.254;2023-03-17T04:48:28;100324.63;;;18.25;37.84
56630;BME280;42502;40.732;-74.254;2023-03-17T04:50:29;100309.41;;;18.22;37.88
56630;BME280;42502;40.732;-74.254;2023-03-17T04:52:32;100304.16;;;18.21;37.63
56630;BME280;42502;40.732;-74.254;2023-03-17T04:54:33;100303.81;;;18.22;37.56
56630;BME280;42502;40.732;-74.254;2023-03-17T04:56:34;100298.91;;;18.19;37.75
56630;BME280;42502;40.732;-74.254;2023-03-17T04:58:36;100299.03;;;18.23;37.60
56630;BME280;42502;40.732;-74.254;2023-03-17T05:00:37;100292.63;;;18.22;37.96
56630;BME280;42502;40.732;-74.254;2023-03-17T05:02:38;100292.63;;;18.22;37.81
56630;BME280;42502;40.732;-74.254;2023-03-17T05:04:39;100286.53;;;18.20;37.67
56630;BME280;42502;40.732;-74.254;2023-03-17T05:06:40;100283.41;;;18.22;37.72
56630;BME280;42502;40.732;-74.254;2023-03-17T05:08:41;100266.25;;;18.11;37.53
56630;BME280;42502;40.732;-74.254;2023-03-17T05:10:47;100276.06;;;18.17;37.75
56630;BME280;42502;40.732;-74.254;2023-03-17T05:12:48;100282.94;;;18.20;37.63
56630;BME280;42502;40.732;-74.254;2023-03-17T05:14:49;100287.72;;;18.19;37.71
56630;BME280;42502;40.732;-74.254;2023-03-17T05:16:49;100280.16;;;18.20;37.46
56630;BME280;42502;40.732;-74.254;2023-03-17T05:18:50;100273.25;;;18.17;37.62
56630;BME280;42502;40.732;-74.254;2023-03-17T05:20:51;100264.53;;;18.19;37.74
56630;BME280;42502;40.732;-74.254;2023-03-17T05:22:52;100272.09;;;18.18;37.51
56630;BME280;42502;40.732;-74.254;2023-03-17T05:24:53;100264.88;;;18.17;37.60
56630;BME280;42502;40.732;-74.254;2023-03-17T05:26:54;100247.72;;;18.06;37.50
56630;BME280;42502;40.732;-74.254;2023-03-17T05:28:58;100262.41;;;18.16;37.41
56630;BME280;42502;40.732;-74.254;2023-03-17T05:30:58;100261.63;;;18.15;37.47
56630;BME280;42502;40.732;-74.254;2023-03-17T05:32:59;100256.81;;;18.16;37.54
56630;BME280;42502;40.732;-74.254;2023-03-17T05:35:00;100255.22;;;18.15;37.55
56630;BME280;42502;40.732;-74.254;2023-03-17T05:37:05;100241.09;;;18.11;37.43
56630;BME280;42502;40.732;-74.254;2023-03-17T05:39:07;100256.03;;;18.15;37.46
56630;BME280;42502;40.732;-74.254;2023-03-17T05:41:14;100250.78;;;18.14;37.35
56630;BME280;42502;40.732;-74.254;2023-03-17T05:43:15;100253.56;;;18.14;37.54
56630;BME280;42502;40.732;-74.254;2023-03-17T05:45:17;100245.19;;;18.14;37.35
56630;BME280;42502;40.732;-74.254;2023-03-17T05:47:18;100244.72;;;18.11;37.30
56630;BME280;42502;40.732;-74.254;2023-03-17T05:49:18;100244.38;;;18.13;37.48
56630;BME280;42502;40.732;-74.254;2023-03-17T05:51:19;100235.41;;;18.07;37.29
56630;BME280;42502;40.732;-74.254;2023-03-17T05:53:21;100240.28;;;18.10;37.32
56630;BME280;42502;40.732;-74.254;2023-03-17T05:55:21;100235.84;;;18.09;37.52
56630;BME280;42502;40.732;-74.254;2023-03-17T05:57:22;100233.91;;;18.10;37.26
56630;BME280;42502;40.732;-74.254;2023-03-17T05:59:23;100240.28;;;18.10;37.43
56630;BME280;42502;40.732;-74.254;2023-03-17T06:01:27;100235.41;;;18.07;37.44
56630;BME280;42502;40.732;-74.254;2023-03-17T06:03:28;100230.16;;;18.06;37.34
56630;BME280;42502;40.732;-74.254;2023-03-17T06:05:32;100232.59;;;18.07;37.54
56630;BME280;42502;40.732;-74.254;2023-03-17T06:07:36;100235.06;;;18.09;37.21
56630;BME280;42502;40.732;-74.254;2023-03-17T06:09:38;100234.25;;;18.08;37.35
56630;BME280;42502;40.732;-74.254;2023-03-17T06:11:39;100236.22;;;18.08;37.25
56630;BME280;42502;40.732;-74.254;2023-03-17T06:13:41;100230.63;;;18.08;37.30
56630;BME280;42502;40.732;-74.254;2023-03-17T06:15:41;100226.22;;;18.07;37.30
56630;BME280;42502;40.732;-74.254;2023-03-17T06:17:43;100214.88;;;18.03;37.17
56630;BME280;42502;40.732;-74.254;2023-03-17T06:19:44;100226.56;;;18.05;37.23
56630;BME280;42502;40.732;-74.254;2023-03-17T06:21:45;100217.34;;;18.05;37.39
56630;BME280;42502;40.732;-74.254;2023-03-17T06:23:46;100208.94;;;18.05;37.22
56630;BME280;42502;40.732;-74.254;2023-03-17T06:25:56;100207.69;;;18.02;37.06
56630;BME280;42502;40.732;-74.254;2023-03-17T06:27:56;100212.59;;;18.05;37.17
56630;BME280;42502;40.732;-74.254;2023-03-17T06:29:57;100203.72;;;18.03;37.01
56630;BME280;42502;40.732;-74.254;2023-03-17T06:32:02;100207.34;;;18.04;37.01
56630;BME280;42502;40.732;-74.254;2023-03-17T06:34:04;100203.94;;;17.98;37.31
56630;BME280;42502;40.732;-74.254;2023-03-17T06:36:05;100202.91;;;18.03;37.00
56630;BME280;42502;40.732;-74.254;2023-03-17T06:38:10;100204.06;;;18.02;37.13
56630;BME280;42502;40.732;-74.254;2023-03-17T06:40:11;100188.81;;;17.99;36.93
56630;BME280;42502;40.732;-74.254;2023-03-17T06:42:13;100193.72;;;18.02;36.92
56630;BME280;42502;40.732;-74.254;2023-03-17T06:44:14;100182.88;;;18.01;36.95
56630;BME280;42502;40.732;-74.254;2023-03-17T06:46:17;100186.47;;;18.01;36.99
56630;BME280;42502;40.732;-74.254;2023-03-17T06:48:18;100173.56;;;17.97;36.87
56630;BME280;42502;40.732;-74.254;2023-03-17T06:50:19;100178.44;;;18.00;37.19
56630;BME280;42502;40.732;-74.254;2023-03-17T06:52:20;100169.59;;;17.98;37.05
56630;BME280;42502;40.732;-74.254;2023-03-17T06:54:21;100171.56;;;17.97;37.08
56630;BME280;42502;40.732;-74.254;2023-03-17T06:56:24;100167.97;;;17.97;37.02
56630;BME280;42502;40.732;-74.254;2023-03-17T06:58:25;100162.03;;;17.98;37.09
56630;BME280;42502;40.732;-74.254;2023-03-17T07:00:29;100158.44;;;17.98;37.17
56630;BME280;42502;40.732;-74.254;2023-03-17T07:02:33;100161.09;;;17.94;37.04
56630;BME280;42502;40.732;-74.254;2023-03-17T07:04:34;100160.72;;;17.96;36.94
56630;BME280;42502;40.732;-74.254;2023-03-17T07:06:39;100156.66;;;17.93;36.87
56630;BME280;42502;40.732;-74.254;2023-03-17T07:08:40;100161.09;;;17.94;36.83
56630;BME280;42502;40.732;-74.254;2023-03-17T07:10:41;100155.03;;;17.92;36.90
56630;BME280;42502;40.732;-74.254;2023-03-17T07:12:48;100159.94;;;17.95;36.97
56630;BME280;42502;40.732;-74.254;2023-03-17T07:14:52;100155.50;;;17.94;37.07
56630;BME280;42502;40.732;-74.254;2023-03-17T07:16:56;100156.28;;;17.94;36.83
56630;BME280;42502;40.732;-74.254;2023-03-17T07:19:00;100142.22;;;17.91;36.78
56630;BME280;42502;40.732;-74.254;2023-03-17T07:21:01;100126.25;;;17.91;36.88
56630;BME280;42502;40.732;-74.254;2023-03-17T07:23:05;100127.09;;;17.92;36.63
56630;BME280;42502;40.732;-74.254;2023-03-17T07:25:09;100115.75;;;17.88;36.47
56630;BME280;42502;40.732;-74.254;2023-03-17T07:27:10;100124.66;;;17.90;36.94
56630;BME280;42502;40.732;-74.254;2023-03-17T07:29:11;100111.03;;;17.89;36.78
56630;BME280;42502;40.732;-74.254;2023-03-17T07:31:13;100109.84;;;17.90;36.69
56630;BME280;42502;40.732;-74.254;2023-03-17T07:33:16;100098.19;;;17.88;36.78
56630;BME280;42502;40.732;-74.254;2023-03-17T07:35:16;100097.06;;;17.89;36.76
56630;BME280;42502;40.732;-74.254;2023-03-17T07:37:18;100084.22;;;17.88;36.73
56630;BME280;42502;40.732;-74.254;2023-03-17T07:39:20;100082.22;;;17.88;36.61
56630;BME280;42502;40.732;-74.254;2023-03-17T07:41:21;100077.81;;;17.87;36.59
56630;BME280;42502;40.732;-74.254;2023-03-17T07:43:22;100067.78;;;17.86;36.64
56630;BME280;42502;40.732;-74.254;2023-03-17T07:45:23;100062.19;;;17.86;36.70
56630;BME280;42502;40.732;-74.254;2023-03-17T07:47:24;100058.59;;;17.86;36.85
56630;BME280;42502;40.732;-74.254;2023-03-17T07:49:25;100046.13;;;17.83;36.75
56630;BME280;42502;40.732;-74.254;2023-03-17T07:51:26;100046.94;;;17.84;36.49
56630;BME280;42502;40.732;-74.254;2023-03-17T07:53:27;100048.47;;;17.81;36.37
56630;BME280;42502;40.732;-74.254;2023-03-17T07:55:30;100059.75;;;17.85;36.64
56630;BME280;42502;40.732;-74.254;2023-03-17T07:57:31;100050.09;;;17.82;36.69
56630;BME280;42502;40.732;-74.254;2023-03-17T07:59:38;100038.47;;;17.80;36.66
56630;BME280;42502;40.732;-74.254;2023-03-17T08:01:39;100039.75;;;17.83;36.49
56630;BME280;42502;40.732;-74.254;2023-03-17T08:03:40;100036.94;;;17.83;36.31
56630;BME280;42502;40.732;-74.254;2023-03-17T08:05:43;100033.69;;;17.81;36.38
56630;BME280;42502;40.732;-74.254;2023-03-17T08:07:44;100028.91;;;17.81;36.41
56630;BME280;42502;40.732;-74.254;2023-03-17T08:09:45;100035.66;;;17.80;36.44
56630;BME280;42502;40.732;-74.254;2023-03-17T08:11:47;100026.47;;;17.80;36.31
56630;BME280;42502;40.732;-74.254;2023-03-17T08:13:51;100021.25;;;17.78;36.55
56630;BME280;42502;40.732;-74.254;2023-03-17T08:15:52;100009.13;;;17.74;36.34
56630;BME280;42502;40.732;-74.254;2023-03-17T08:17:52;100020.06;;;17.79;36.55
56630;BME280;42502;40.732;-74.254;2023-03-17T08:19:53;100006.09;;;17.79;36.35
56630;BME280;42502;40.732;-74.254;2023-03-17T08:21:54;100014.00;;;17.77;36.52
56630;BME280;42502;40.732;-74.254;2023-03-17T08:23:55;100021.25;;;17.78;36.56
56630;BME280;42502;40.732;-74.254;2023-03-17T08:26:03;100013.56;;;17.75;36.54
56630;BME280;42502;40.732;-74.254;2023-03-17T08:28:04;100015.53;;;17.74;36.37
56630;BME280;42502;40.732;-74.254;2023-03-17T08:30:05;100014.38;;;17.75;36.26
56630;BME280;42502;40.732;-74.254;2023-03-17T08:32:10;100015.53;;;17.74;36.37
56630;BME280;42502;40.732;-74.254;2023-03-17T08:34:14;100023.91;;;17.74;36.25
56630;BME280;42502;40.732;-74.254;2023-03-17T08:36:16;100026.69;;;17.74;36.53
56630;BME280;42502;40.732;-74.254;2023-03-17T08:38:18;100022.66;;;17.72;36.31
56630;BME280;42502;40.732;-74.254;2023-03-17T08:40:18;100018.66;;;17.73;36.28
56630;BME280;42502;40.732;-74.254;2023-03-17T08:42:20;100010.28;;;17.73;36.09
56630;BME280;42502;40.732;-74.254;2023-03-17T08:44:21;100016.22;;;17.71;36.39
56630;BME280;42502;40.732;-74.254;2023-03-17T08:46:25;100017.75;;;17.69;36.26
56630;BME280;42502;40.732;-74.254;2023-03-17T08:48:35;100021.00;;;17.71;36.19
56630;BME280;42502;40.732;-74.254;2023-03-17T08:50:36;100010.88;;;17.66;36.30
56630;BME280;42502;40.732;-74.254;2023-03-17T08:52:37;100024.97;;;17.70;36.30
56630;BME280;42502;40.732;-74.254;2023-03-17T08:54:39;100014.03;;;17.65;36.08
56630;BME280;42502;40.732;-74.254;2023-03-17T08:56:40;100023.34;;;17.69;36.15
56630;BME280;42502;40.732;-74.254;2023-03-17T08:58:42;100020.56;;;17.69;36.08
56630;BME280;42502;40.732;-74.254;2023-03-17T09:00:43;100018.78;;;17.64;36.13
56630;BME280;42502;40.732;-74.254;2023-03-17T09:02:47;100023.69;;;17.67;35.98
56630;BME280;42502;40.732;-74.254;2023-03-17T09:04:48;100034.03;;;17.67;36.52
56630;BME280;42502;40.732;-74.254;2023-03-17T09:06:49;100051.94;;;17.66;36.08
56630;BME280;42502;40.732;-74.254;2023-03-17T09:08:50;100048.59;;;17.60;36.12
56630;BME280;42502;40.732;-74.254;2023-03-17T09:10:54;100063.13;;;17.66;36.06
56630;BME280;42502;40.732;-74.254;2023-03-17T09:12:55;100063.03;;;17.62;36.25
56630;BME280;42502;40.732;-74.254;2023-03-17T09:15:02;100062.66;;;17.64;35.92
56630;BME280;42502;40.732;-74.254;2023-03-17T09:17:03;100061.88;;;17.63;36.25
56630;BME280;42502;40.732;-74.254;2023-03-17T09:19:06;100056.63;;;17.62;36.03
56630;BME280;42502;40.732;-74.254;2023-03-17T09:21:07;100064.66;;;17.63;36.28
56630;BME280;42502;40.732;-74.254;2023-03-17T09:23:11;100065.00;;;17.62;36.07
56630;BME280;42502;40.732;-74.254;2023-03-17T09:25:12;100060.94;;;17.59;36.09
56630;BME280;42502;40.732;-74.254;2023-03-17T09:27:14;100069.31;;;17.59;35.98
56630;BME280;42502;40.732;-74.254;2023-03-17T09:29:15;100073.38;;;17.62;36.07
56630;BME280;42502;40.732;-74.254;2023-03-17T09:31:15;100072.56;;;17.61;35.94
56630;BME280;42502;40.732;-74.254;2023-03-17T09:33:16;100063.38;;;17.61;36.07
56630;BME280;42502;40.732;-74.254;2023-03-17T09:35:18;100075.69;;;17.59;35.97
56630;BME280;42502;40.732;-74.254;2023-03-17T09:37:20;100062.09;;;17.58;35.96
56630;BME280;42502;40.732;-74.254;2023-03-17T09:39:21;100060.47;;;17.57;36.16
56630;BME280;42502;40.732;-74.254;2023-03-17T09:42:03;100060.47;;;17.57;36.20
56630;BME280;42502;40.732;-74.254;2023-03-17T09:44:11;100066.88;;;17.57;35.94
56630;BME280;42502;40.732;-74.254;2023-03-17T09:48:46;100068.38;;;17.55;36.30
56630;BME280;42502;40.732;-74.254;2023-03-17T09:53:03;100060.34;;;17.53;36.05
56630;BME280;42502;40.732;-74.254;2023-03-17T09:55:06;100058.38;;;17.54;35.84
56630;BME280;42502;40.732;-74.254;2023-03-17T09:57:24;100043.56;;;17.53;36.21
56630;BME280;42502;40.732;-74.254;2023-03-17T10:01:27;100023.22;;;17.53;35.91
56630;BME280;42502;40.732;-74.254;2023-03-17T10:03:28;100016.69;;;17.49;35.62
56630;BME280;42502;40.732;-74.254;2023-03-17T10:05:34;100018.00;;;17.51;36.18
56630;BME280;42502;40.732;-74.254;2023-03-17T10:10:02;99994.34;;;17.36;36.15
56630;BME280;42502;40.732;-74.254;2023-03-17T10:20:56;99999.38;;;17.43;35.99
56630;BME280;42502;40.732;-74.254;2023-03-17T10:23:12;100003.44;;;17.46;36.35
56630;BME280;42502;40.732;-74.254;2023-03-17T10:25:23;100005.41;;;17.45;36.13
56630;BME280;42502;40.732;-74.254;2023-03-17T10:27:26;100000.63;;;17.46;35.80
56630;BME280;42502;40.732;-74.254;2023-03-17T10:29:27;100004.63;;;17.45;35.88
56630;BME280;42502;40.732;-74.254;2023-03-17T10:31:30;99988.66;;;17.45;36.04
56630;BME280;42502;40.732;-74.254;2023-03-17T10:33:34;99974.59;;;17.42;35.68
56630;BME280;42502;40.732;-74.254;2023-03-17T10:35:36;99983.44;;;17.44;35.93
56630;BME280;42502;40.732;-74.254;2023-03-17T10:37:38;99974.13;;;17.39;35.84
56630;BME280;42502;40.732;-74.254;2023-03-17T10:39:50;99978.19;;;17.42;35.87
56630;BME280;42502;40.732;-74.254;2023-03-17T10:41:55;99989.38;;;17.42;35.98
56630;BME280;42502;40.732;-74.254;2023-03-17T10:43:59;99983.31;;;17.40;36.07
56630;BME280;42502;40.732;-74.254;2023-03-17T10:46:06;99984.94;;;17.41;35.91